createdAt,value
2023-03-13T00:02:16.540Z,100400.00
2023-03-13T00:04:44.712Z,100399.53
2023-03-13T00:07:13.864Z,100401.88
2023-03-13T00:09:42.014Z,100393.63
2023-03-13T00:12:10.365Z,100397.72
2023-03-13T00:14:39.736Z,100393.78
2023-03-13T00:17:07.621Z,100394.88
2023-03-13T00:19:35.546Z,100393.91
2023-03-13T00:22:03.388Z,100384.97
2023-03-13T00:24:31.272Z,100382.28
2023-03-13T00:27:03.184Z,100385.28
2023-03-13T00:29:31.640Z,100382.53
2023-03-13T00:32:02.052Z,100387.22
2023-03-13T00:34:30.139Z,100377.47
2023-03-13T00:36:59.689Z,100381.13
2023-03-13T00:39:29.006Z,100382.84
2023-03-13T00:41:56.864Z,100375.94
2023-03-13T00:44:24.702Z,100368.56
2023-03-13T00:46:52.610Z,100367.81
2023-03-13T00:49:21.840Z,100361.72
2023-03-13T00:51:49.722Z,100361.66
2023-03-13T00:54:17.543Z,100353.44
2023-03-13T00:56:45.420Z,100358.91
2023-03-13T00:59:13.294Z,100344.19
2023-03-13T01:01:42.767Z,100352.03
2023-03-13T01:04:12.798Z,100342.00
2023-03-13T01:06:43.369Z,100351.31
2023-03-13T01:09:13.741Z,100338.91
2023-03-13T01:11:44.080Z,100329.03
2023-03-13T01:14:14.741Z,100336.38
2023-03-13T01:16:43.430Z,100335.41
2023-03-13T01:19:13.810Z,100335.84
2023-03-13T01:21:43.744Z,100345.59
2023-03-13T01:24:11.896Z,100335.72
2023-03-13T01:26:39.845Z,100337.59
2023-03-13T01:29:07.668Z,100343.75
2023-03-13T01:31:36.904Z,100332.00
2023-03-13T01:34:08.053Z,100340.22
2023-03-13T01:36:37.779Z,100339.50
2023-03-13T01:39:07.648Z,100331.13
2023-03-13T01:41:35.988Z,100335.88
2023-03-13T01:44:04.213Z,100323.84
2023-03-13T01:46:38.364Z,100330.53
2023-03-13T01:49:15.391Z,100326.88
2023-03-13T01:52:26.991Z,100314.75
2023-03-13T01:55:06.161Z,100315.91
2023-03-13T01:57:38.460Z,100300.97
2023-03-13T02:00:10.827Z,100302.69
2023-03-13T02:02:45.250Z,100297.22
2023-03-13T02:05:14.648Z,100294.69
2023-03-13T02:07:46.935Z,100289.59
2023-03-13T02:10:18.531Z,100288.72
2023-03-13T02:12:46.771Z,100283.75
2023-03-13T02:15:17.436Z,100284.47
2023-03-13T02:17:46.883Z,100275.03
2023-03-13T02:20:16.147Z,100270.91
2023-03-13T02:22:50.855Z,100270.91
2023-03-13T02:25:31.366Z,100266.66
2023-03-13T02:28:04.432Z,100260.97
2023-03-13T02:30:34.925Z,100263.13
2023-03-13T02:33:04.865Z,100247.63
2023-03-13T02:35:34.162Z,100250.78
2023-03-13T02:38:07.092Z,100249.56
2023-03-13T02:40:40.456Z,100251.75
2023-03-13T02:43:14.067Z,100247.84
2023-03-13T02:45:42.254Z,100243.03
2023-03-13T02:48:11.558Z,100235.75
2023-03-13T02:50:39.514Z,100233.31
2023-03-13T02:53:08.691Z,100224.72
2023-03-13T02:55:41.895Z,100220.94
2023-03-13T02:58:12.283Z,100217.75
2023-03-13T03:00:40.206Z,100207.03
2023-03-13T03:03:08.189Z,100202.03
2023-03-13T03:05:37.985Z,100204.94
2023-03-13T03:08:06.004Z,100199.59
2023-03-13T03:10:36.502Z,100195.97
2023-03-13T03:13:06.348Z,100191.59
2023-03-13T03:15:34.273Z,100186.03
2023-03-13T03:18:02.125Z,100186.00
2023-03-13T03:20:30.548Z,100185.88
2023-03-13T03:22:58.485Z,100181.94
2023-03-13T03:25:27.782Z,100185.63
2023-03-13T03:27:55.668Z,100189.50
2023-03-13T03:30:24.926Z,100184.81
2023-03-13T03:32:53.343Z,100180.91
2023-03-13T03:35:23.209Z,100175.22
2023-03-13T03:37:51.103Z,100182.38
2023-03-13T03:40:21.377Z,100175.19
2023-03-13T03:42:49.411Z,100163.34
2023-03-13T03:45:17.419Z,100164.41
2023-03-13T03:47:46.632Z,100164.72
2023-03-13T03:50:14.530Z,100162.81
2023-03-13T03:52:52.475Z,100165.22
2023-03-13T03:55:21.362Z,100153.72
2023-03-13T03:57:49.276Z,100149.78
2023-03-13T04:00:27.771Z,100141.47
2023-03-13T04:02:57.111Z,100135.91
2023-03-13T04:05:25.394Z,100126.75
2023-03-13T04:07:53.555Z,100121.03
2023-03-13T04:10:21.694Z,100123.31
2023-03-13T04:12:49.695Z,100118.44
2023-03-13T04:15:17.706Z,100117.72
2023-03-13T04:17:45.869Z,100110.09
2023-03-13T04:20:16.390Z,100108.78
2023-03-13T04:22:44.940Z,100109.63
2023-03-13T04:25:13.852Z,100105.16
2023-03-13T04:27:42.417Z,100099.81
2023-03-13T04:30:12.109Z,100099.75
2023-03-13T04:33:00.408Z,100089.78
2023-03-13T04:35:43.043Z,100079.06
2023-03-13T04:38:23.293Z,100075.00
2023-03-13T04:41:29.498Z,100069.41
2023-03-13T04:44:10.499Z,100067.13
2023-03-13T04:46:56.698Z,100061.22
2023-03-13T04:49:47.699Z,100054.31
2023-03-13T04:52:40.585Z,100056.78
2023-03-13T04:55:15.905Z,100044.22
2023-03-13T04:57:54.754Z,100048.50
2023-03-13T05:00:45.884Z,100039.94
2023-03-13T05:03:33.866Z,100042.78
2023-03-13T05:06:24.359Z,100023.06
2023-03-13T05:09:13.850Z,100015.28
2023-03-13T05:12:00.397Z,100010.09
2023-03-13T05:14:46.632Z,100013.03
2023-03-13T05:17:35.375Z,100000.91
2023-03-13T05:20:22.165Z,99998.56
2023-03-13T05:22:55.682Z,99999.31
2023-03-13T05:25:43.504Z,99993.03
2023-03-13T05:28:37.336Z,99994.91
2023-03-13T05:31:22.037Z,99996.44
2023-03-13T05:33:50.036Z,99986.06
2023-03-13T05:36:45.699Z,99978.63
2023-03-13T05:39:31.969Z,99963.13
2023-03-13T05:42:21.498Z,99956.91
2023-03-13T05:45:10.909Z,99959.78
2023-03-13T05:47:58.829Z,99943.34
2023-03-13T05:50:58.969Z,99932.63
2023-03-13T05:53:49.994Z,99943.31
2023-03-13T05:56:29.053Z,99931.56
2023-03-13T05:59:13.758Z,99935.22
2023-03-13T06:02:08.870Z,99922.28
2023-03-13T06:04:42.025Z,99923.16
2023-03-13T06:07:10.070Z,99910.22
2023-03-13T06:09:38.021Z,99916.94
2023-03-13T06:12:06.635Z,99907.41
2023-03-13T06:14:36.040Z,99913.91
2023-03-13T06:17:25.543Z,99911.19
2023-03-13T06:19:53.532Z,99897.56
2023-03-13T06:22:21.428Z,99894.44
2023-03-13T06:24:49.683Z,99902.47
2023-03-13T06:27:17.646Z,99891.88
2023-03-13T06:29:46.849Z,99881.78
2023-03-13T06:32:14.832Z,99872.47
2023-03-13T06:34:42.675Z,99862.25
2023-03-13T06:37:10.715Z,99859.97
2023-03-13T06:39:38.715Z,99843.38
2023-03-13T06:42:07.683Z,99848.44
2023-03-13T06:44:35.563Z,99836.63
2023-03-13T06:47:05.161Z,99828.91
2023-03-13T06:49:33.216Z,99820.91
2023-03-13T06:52:01.124Z,99819.78
2023-03-13T06:54:29.068Z,99810.63
2023-03-13T06:56:56.932Z,99805.31
2023-03-13T06:59:24.791Z,99805.72
2023-03-13T07:01:52.688Z,99804.34
2023-03-13T07:04:22.008Z,99803.22
2023-03-13T07:06:49.990Z,99797.75
2023-03-13T07:09:19.989Z,99791.94
2023-03-13T07:11:47.974Z,99801.66
2023-03-13T07:14:17.638Z,99803.22
2023-03-13T07:16:46.574Z,99797.88
2023-03-13T07:19:15.273Z,99799.97
2023-03-13T07:21:45.102Z,99796.31
2023-03-13T07:24:13.029Z,99779.88
2023-03-13T07:26:46.533Z,99787.72
2023-03-13T07:29:22.275Z,99781.84
2023-03-13T07:31:50.212Z,99780.84
2023-03-13T07:34:18.424Z,99780.69
2023-03-13T07:36:47.680Z,99770.44
2023-03-13T07:39:15.584Z,99768.19
2023-03-13T07:41:43.496Z,99767.78
2023-03-13T07:44:16.688Z,99765.13
2023-03-13T07:46:44.570Z,99761.00
2023-03-13T07:49:12.466Z,99753.28
2023-03-13T07:51:43.868Z,99743.00
2023-03-13T07:54:13.721Z,99742.16
2023-03-13T07:56:41.774Z,99724.97
2023-03-13T07:59:10.368Z,99728.63
2023-03-13T08:01:38.461Z,99730.47
2023-03-13T08:04:06.785Z,99723.53
2023-03-13T08:06:36.757Z,99726.44
2023-03-13T08:09:05.619Z,99724.47
2023-03-13T08:11:35.242Z,99717.66
2023-03-13T08:14:03.582Z,99709.25
2023-03-13T08:16:34.260Z,99712.19
2023-03-13T08:19:05.834Z,99707.03
2023-03-13T08:21:35.277Z,99705.13
2023-03-13T08:24:06.853Z,99701.34
2023-03-13T08:26:38.045Z,99697.53
2023-03-13T08:29:08.679Z,99691.47
2023-03-13T08:31:38.350Z,99678.50
2023-03-13T08:34:06.272Z,99684.13
2023-03-13T08:36:35.853Z,99681.13
2023-03-13T08:39:06.370Z,99671.63
2023-03-13T08:41:37.577Z,99669.63
2023-03-13T08:44:06.481Z,99665.59
2023-03-13T08:46:36.155Z,99666.84
2023-03-13T08:49:05.721Z,99663.97
2023-03-13T08:51:34.214Z,99657.31
2023-03-13T08:54:03.412Z,99664.91
2023-03-13T08:56:32.503Z,99655.47
2023-03-13T08:59:03.614Z,99657.97
2023-03-13T09:01:33.152Z,99642.25
2023-03-13T09:04:04.240Z,99640.13
2023-03-13T09:06:33.543Z,99637.22
2023-03-13T09:09:02.135Z,99627.16
2023-03-13T09:11:30.078Z,99628.88
2023-03-13T09:13:59.721Z,99616.38
2023-03-13T09:16:30.954Z,99612.94
2023-03-13T09:18:59.375Z,99627.19
2023-03-13T09:21:29.066Z,99628.00
2023-03-13T09:23:57.294Z,99626.59
2023-03-13T09:26:26.054Z,99628.53
2023-03-13T09:28:54.366Z,99631.16
2023-03-13T09:31:24.195Z,99614.94
2023-03-13T09:33:54.298Z,99622.03
2023-03-13T09:36:23.828Z,99629.41
2023-03-13T09:38:53.032Z,99627.00
2023-03-13T09:41:27.916Z,99617.63
2023-03-13T09:44:03.186Z,99627.47
2023-03-13T09:46:38.752Z,99617.28
2023-03-13T09:49:17.297Z,99600.53
2023-03-13T09:51:52.340Z,99609.38
2023-03-13T09:54:27.092Z,99602.63
2023-03-13T09:57:00.876Z,99603.56
2023-03-13T09:59:38.882Z,99593.75
2023-03-13T10:02:21.411Z,99597.88
2023-03-13T10:04:54.840Z,99603.63
2023-03-13T10:07:22.845Z,99596.88
2023-03-13T10:09:50.747Z,99608.81
2023-03-13T10:12:21.759Z,99599.31
2023-03-13T10:15:01.703Z,99600.84
2023-03-13T10:17:34.327Z,99598.41
2023-03-13T10:20:18.172Z,99598.69
2023-03-13T10:22:51.114Z,99587.50
2023-03-13T10:25:28.105Z,99585.28
2023-03-13T10:27:56.245Z,99585.50
2023-03-13T10:30:27.038Z,99581.75
2023-03-13T10:32:58.646Z,99581.03
2023-03-13T10:35:34.566Z,99575.69
2023-03-13T10:38:06.382Z,99565.66
2023-03-13T10:40:34.357Z,99572.72
2023-03-13T10:43:05.199Z,99563.53
2023-03-13T10:45:36.572Z,99555.66
2023-03-13T10:48:12.684Z,99554.31
2023-03-13T10:50:45.796Z,99553.09
2023-03-13T10:53:26.950Z,99545.97
2023-03-13T10:55:56.808Z,99547.00
2023-03-13T10:58:29.986Z,99538.78
2023-03-13T11:01:15.633Z,99530.59
2023-03-13T11:03:44.428Z,99536.97
2023-03-13T11:06:26.205Z,99532.44
2023-03-13T11:09:04.953Z,99530.75
2023-03-13T11:11:44.173Z,99519.53
2023-03-13T11:14:17.308Z,99523.50
2023-03-13T11:16:50.338Z,99507.81
2023-03-13T11:19:42.564Z,99481.19
2023-03-13T11:22:29.006Z,99485.91
2023-03-13T11:25:12.061Z,99492.59
2023-03-13T11:27:45.805Z,99491.03
2023-03-13T11:30:26.523Z,99494.22
2023-03-13T11:32:57.107Z,99491.44
2023-03-13T11:35:39.938Z,99496.31
2023-03-13T11:38:19.206Z,99484.09
2023-03-13T11:40:59.841Z,99484.75
2023-03-13T11:43:49.068Z,99492.97
2023-03-13T11:46:28.711Z,99487.09
2023-03-13T11:49:14.833Z,99483.63
2023-03-13T11:51:55.926Z,99477.56
2023-03-13T11:54:44.979Z,99486.25
2023-03-13T11:57:18.106Z,99493.84
2023-03-13T11:59:54.229Z,99481.94
2023-03-13T12:02:29.337Z,99482.75
2023-03-13T12:05:02.447Z,99465.16
2023-03-13T12:07:35.410Z,99471.44
2023-03-13T12:10:11.324Z,99476.47
2023-03-13T12:12:44.465Z,99480.19
2023-03-13T12:15:21.659Z,99469.03
2023-03-13T12:17:54.705Z,99470.56
2023-03-13T12:20:26.484Z,99470.06
2023-03-13T12:23:05.040Z,99470.47
2023-03-13T12:25:39.819Z,99477.41
2023-03-13T12:28:24.930Z,99456.56
2023-03-13T12:31:01.463Z,99451.25
2023-03-13T12:33:36.342Z,99452.25
2023-03-13T12:36:10.752Z,99450.13
2023-03-13T12:38:42.593Z,99438.28
2023-03-13T12:41:20.717Z,99458.69
2023-03-13T12:44:07.179Z,99434.94
2023-03-13T12:46:44.147Z,99429.94
2023-03-13T12:49:41.196Z,99424.44
2023-03-13T12:52:42.035Z,99412.69
2023-03-13T12:55:45.928Z,99408.84
2023-03-13T12:58:30.693Z,99413.13
2023-03-13T13:01:03.895Z,99416.88
2023-03-13T13:03:36.590Z,99413.03
2023-03-13T13:06:10.062Z,99391.13
2023-03-13T13:08:41.860Z,99391.13
2023-03-13T13:11:48.995Z,99401.00
2023-03-13T13:14:59.380Z,99392.63
2023-03-13T13:17:50.301Z,99387.91
2023-03-13T13:20:36.811Z,99389.59
2023-03-13T13:23:37.115Z,99392.56
2023-03-13T13:26:48.464Z,99378.91
2023-03-13T13:29:55.293Z,99376.25
2023-03-13T13:32:49.550Z,99376.50
2023-03-13T13:35:32.650Z,99376.47
2023-03-13T13:38:29.218Z,99358.97
2023-03-13T13:41:02.407Z,99374.44
2023-03-13T13:43:33.334Z,99369.06
2023-03-13T13:46:12.022Z,99389.72
2023-03-13T13:48:43.269Z,99360.09
2023-03-13T13:51:28.492Z,99366.81
2023-03-13T13:54:00.492Z,99356.78
2023-03-13T13:56:44.897Z,99365.06
2023-03-13T13:59:43.831Z,99363.59
2023-03-13T14:02:22.224Z,99362.75
2023-03-13T14:04:56.142Z,99377.97
2023-03-13T14:07:29.863Z,99365.41
2023-03-13T14:10:16.164Z,99354.50
2023-03-13T14:12:48.378Z,99356.84
2023-03-13T14:15:20.061Z,99354.63
2023-03-13T14:17:50.104Z,99356.84
2023-03-13T14:20:33.743Z,99348.91
2023-03-13T14:23:04.665Z,99350.16
2023-03-13T14:25:45.157Z,99354.34
2023-03-13T14:28:19.010Z,99343.56
2023-03-13T14:30:48.633Z,99347.06
2023-03-13T14:33:16.747Z,99357.81
2023-03-13T14:35:46.647Z,99352.75
2023-03-13T14:38:19.892Z,99351.53
2023-03-13T14:40:48.089Z,99345.56
2023-03-13T14:43:23.545Z,99347.13
2023-03-13T14:45:52.326Z,99354.34
2023-03-13T14:48:24.692Z,99337.78
2023-03-13T14:51:14.317Z,99340.84
2023-03-13T14:53:56.110Z,99352.13
2023-03-13T14:56:33.093Z,99345.09
2023-03-13T14:59:16.881Z,99330.09
2023-03-13T15:01:45.785Z,99331.81
2023-03-13T15:04:13.738Z,99323.66
2023-03-13T15:06:43.378Z,99335.81
2023-03-13T15:09:21.780Z,99321.06
2023-03-13T15:12:00.575Z,99316.69
2023-03-13T15:14:38.146Z,99322.38
2023-03-13T15:17:13.989Z,99310.19
2023-03-13T15:19:42.224Z,99301.59
2023-03-13T15:22:15.950Z,99305.97
2023-03-13T15:24:48.453Z,99302.41
2023-03-13T15:27:24.029Z,99289.88
2023-03-13T15:29:52.388Z,99306.44
2023-03-13T15:32:27.743Z,99289.63
2023-03-13T15:34:58.466Z,99282.47
2023-03-13T15:37:28.939Z,99286.66
2023-03-13T15:39:58.148Z,99281.44
2023-03-13T15:42:26.509Z,99284.28
2023-03-13T15:44:54.368Z,99271.47
2023-03-13T15:47:23.282Z,99274.03
2023-03-13T15:49:51.197Z,99272.59
2023-03-13T15:52:20.442Z,99274.66
2023-03-13T15:54:51.235Z,99268.69
2023-03-13T15:57:23.162Z,99256.19
2023-03-13T15:59:51.300Z,99257.03
2023-03-13T16:02:22.207Z,99245.63
2023-03-13T16:04:52.304Z,99252.31
2023-03-13T16:07:22.038Z,99263.78
2023-03-13T16:09:51.296Z,99265.06
2023-03-13T16:12:19.251Z,99259.47
2023-03-13T16:14:47.186Z,99242.72
2023-03-13T16:17:17.760Z,99232.66
2023-03-13T16:19:47.120Z,99240.41
2023-03-13T16:22:15.676Z,99224.91
2023-03-13T16:24:43.571Z,99224.06
2023-03-13T16:27:15.290Z,99221.03
2023-03-13T16:29:43.308Z,99211.34
2023-03-13T16:32:13.545Z,99213.72
2023-03-13T16:34:41.513Z,99204.09
2023-03-13T16:37:14.320Z,99204.53
2023-03-13T16:39:42.961Z,99206.91
2023-03-13T16:42:11.734Z,99203.59
2023-03-13T16:44:41.804Z,99208.25
2023-03-13T16:47:18.572Z,99189.66
2023-03-13T16:49:47.633Z,99192.69
2023-03-13T16:52:16.934Z,99191.41
2023-03-13T16:54:45.405Z,99188.41
2023-03-13T16:57:14.707Z,99186.97
2023-03-13T16:59:44.206Z,99187.06
2023-03-13T17:02:17.209Z,99180.13
2023-03-13T17:04:45.627Z,99171.19
2023-03-13T17:07:19.282Z,99174.94
2023-03-13T17:09:47.755Z,99170.63
2023-03-13T17:12:15.918Z,99178.91
2023-03-13T17:14:45.590Z,99178.00
2023-03-13T17:17:15.766Z,99170.94
2023-03-13T17:19:43.812Z,99159.63
2023-03-13T17:22:13.751Z,99171.28
2023-03-13T17:24:42.327Z,99168.13
2023-03-13T17:27:13.397Z,99182.72
2023-03-13T17:29:42.208Z,99196.81
2023-03-13T17:32:13.958Z,99196.66
2023-03-13T17:34:42.716Z,99187.31
2023-03-13T17:37:16.799Z,99191.31
2023-03-13T17:39:45.189Z,99199.47
2023-03-13T17:42:13.579Z,99194.38
2023-03-13T17:44:42.450Z,99193.88
2023-03-13T17:47:15.188Z,99192.31
2023-03-13T17:49:43.855Z,99191.19
2023-03-13T17:52:14.957Z,99184.94
2023-03-13T17:54:43.485Z,99174.25
2023-03-13T17:57:16.701Z,99196.53
2023-03-13T17:59:44.906Z,99178.72
2023-03-13T18:02:16.981Z,99197.88
2023-03-13T18:04:45.680Z,99182.94
2023-03-13T18:07:22.345Z,99157.03
2023-03-13T18:09:50.351Z,99173.81
2023-03-13T18:12:18.977Z,99172.69
2023-03-13T18:14:47.272Z,99181.28
2023-03-13T18:17:19.376Z,99173.63
2023-03-13T18:19:48.127Z,99167.31
2023-03-13T18:22:17.545Z,99164.34
2023-03-13T18:24:46.245Z,99166.97
2023-03-13T18:27:16.121Z,99152.78
2023-03-13T18:29:45.333Z,99158.38
2023-03-13T18:32:14.763Z,99158.78
2023-03-13T18:34:44.942Z,99168.28
2023-03-13T18:37:21.619Z,99159.53
2023-03-13T18:39:51.286Z,99166.88
2023-03-13T18:42:19.925Z,99154.47
2023-03-13T18:44:48.090Z,99148.22
2023-03-13T18:47:18.287Z,99139.72
2023-03-13T18:49:50.064Z,99142.97
2023-03-13T18:52:18.493Z,99132.22
2023-03-13T18:54:46.541Z,99136.22
2023-03-13T18:57:16.973Z,99142.41
2023-03-13T18:59:45.364Z,99144.34
2023-03-13T19:02:15.274Z,99150.47
2023-03-13T19:04:43.289Z,99149.22
2023-03-13T19:07:19.883Z,99137.97
2023-03-13T19:09:47.806Z,99142.63
2023-03-13T19:12:16.515Z,99135.94
2023-03-13T19:14:44.597Z,99137.84
2023-03-13T19:17:17.690Z,99122.28
2023-03-13T19:19:45.602Z,99116.88
2023-03-13T19:22:15.328Z,99100.69
2023-03-13T19:24:43.313Z,99096.69
2023-03-13T19:27:16.773Z,99094.16
2023-03-13T19:29:45.302Z,99110.19
2023-03-13T19:32:15.145Z,99114.72
2023-03-13T19:34:43.085Z,99112.63
2023-03-13T19:37:14.717Z,99110.03
2023-03-13T19:39:44.295Z,99108.50
2023-03-13T19:42:12.301Z,99112.13
2023-03-13T19:44:41.407Z,99097.16
2023-03-13T19:47:14.666Z,99092.59
2023-03-13T19:49:42.732Z,99087.25
2023-03-13T19:52:10.668Z,99088.47
2023-03-13T19:54:38.624Z,99089.13
2023-03-13T19:57:11.113Z,99098.00
2023-03-13T19:59:40.152Z,99102.22
2023-03-13T20:02:09.284Z,99100.50
2023-03-13T20:04:37.389Z,99104.78
2023-03-13T20:07:05.407Z,99106.81
2023-03-13T20:09:35.450Z,99096.44
2023-03-13T20:12:03.522Z,99091.34
2023-03-13T20:14:32.800Z,99081.75
2023-03-13T20:17:00.699Z,99086.94
2023-03-13T20:19:29.621Z,99082.97
2023-03-13T20:22:03.641Z,99069.78
2023-03-13T20:24:33.276Z,99070.94
2023-03-13T20:27:01.343Z,99065.31
2023-03-13T20:29:29.531Z,99072.72
2023-03-13T20:32:00.263Z,99067.63
2023-03-13T20:34:29.025Z,99060.88
2023-03-13T20:36:59.099Z,99059.34
2023-03-13T20:39:27.554Z,99064.09
2023-03-13T20:41:56.360Z,99050.16
2023-03-13T20:44:24.694Z,99051.84
2023-03-13T20:46:52.753Z,99046.00
2023-03-13T20:49:22.467Z,99055.25
2023-03-13T20:51:51.160Z,99053.69
2023-03-13T20:54:19.248Z,99044.69
2023-03-13T20:56:47.408Z,99062.53
2023-03-13T20:59:15.315Z,99065.13
2023-03-13T21:01:44.005Z,99063.97
2023-03-13T21:04:12.069Z,99049.88
2023-03-13T21:06:41.808Z,99046.19
2023-03-13T21:09:09.683Z,99058.66
2023-03-13T21:11:37.646Z,99053.44
2023-03-13T21:14:05.585Z,99046.19
2023-03-13T21:16:33.514Z,99046.25
2023-03-13T21:19:01.451Z,99050.63
2023-03-13T21:21:29.606Z,99050.19
2023-03-13T21:23:58.917Z,99042.81
2023-03-13T21:26:26.921Z,99047.94
2023-03-13T21:28:54.868Z,99045.22
2023-03-13T21:31:22.950Z,99050.94
2023-03-13T21:33:51.652Z,99060.38
2023-03-13T21:36:21.855Z,99059.22
2023-03-13T21:38:51.003Z,99073.06
2023-03-13T21:41:23.047Z,99074.72
2023-03-13T21:43:51.252Z,99077.44
2023-03-13T21:46:19.940Z,99060.09
2023-03-13T21:48:48.069Z,99050.81
2023-03-13T21:51:16.793Z,99052.81
2023-03-13T21:53:45.306Z,99048.19
2023-03-13T21:56:15.429Z,99046.06
2023-03-13T21:58:46.053Z,99038.97
2023-03-13T22:01:15.102Z,99026.91
2023-03-13T22:03:43.101Z,99035.75
2023-03-13T22:06:14.578Z,99034.84
2023-03-13T22:08:42.778Z,99031.75
2023-03-13T22:11:11.329Z,99028.84
2023-03-13T22:13:39.458Z,99045.47
2023-03-13T22:16:11.526Z,99041.59
2023-03-13T22:18:40.719Z,99039.84
2023-03-13T22:21:09.014Z,99035.34
2023-03-13T22:23:36.959Z,99034.59
2023-03-13T22:26:05.292Z,99034.09
2023-03-13T22:28:33.215Z,99019.19
2023-03-13T22:31:01.635Z,99025.88
2023-03-13T22:33:30.931Z,99027.28
2023-03-13T22:35:59.391Z,99019.59
2023-03-13T22:38:27.325Z,99019.09
2023-03-13T22:40:59.250Z,99030.94
2023-03-13T22:43:27.676Z,99023.81
2023-03-13T22:45:55.552Z,99016.75
2023-03-13T22:48:23.591Z,99007.78
2023-03-13T22:51:01.438Z,99019.97
2023-03-13T22:53:29.813Z,99020.25
2023-03-13T22:55:57.664Z,99007.31
2023-03-13T22:58:25.587Z,98996.34
2023-03-13T23:00:53.494Z,99005.84
2023-03-13T23:03:22.120Z,99014.22
2023-03-13T23:05:50.045Z,99007.47
2023-03-13T23:08:19.317Z,99005.47
2023-03-13T23:10:48.416Z,99009.84
2023-03-13T23:13:16.671Z,99025.91
2023-03-13T23:15:59.692Z,99018.03
2023-03-13T23:18:28.939Z,99030.47
2023-03-13T23:20:56.812Z,99008.69
2023-03-13T23:23:26.090Z,99003.81
2023-03-13T23:25:54.153Z,98983.69
2023-03-13T23:28:22.059Z,98984.38
2023-03-13T23:30:49.915Z,98987.19
2023-03-13T23:33:17.750Z,98980.84
2023-03-13T23:35:45.687Z,98977.59
2023-03-13T23:38:13.819Z,98983.53
2023-03-13T23:40:43.038Z,98997.84
2023-03-13T23:43:10.894Z,98990.91
2023-03-13T23:45:39.756Z,98972.72
2023-03-13T23:48:07.904Z,98971.38
2023-03-13T23:50:37.312Z,98983.22
2023-03-13T23:53:05.254Z,98975.66
2023-03-13T23:55:33.274Z,98989.34
2023-03-13T23:58:02.503Z,98990.69
